1976 NOT_NAMED (1976063S12115)


IBTrACS version v04r00. Visit IBTrACS website for data access.
Please direct all questions to the IBTrACS Q and A forum

Storm track - Intensity - Wind Radii - Intensity Data - Source Data - All data

Summary Information

Storm ID 1976063S12115
Start Mar 3 00Z
End Mar 5 03Z
ATCF IDs SH181976
Track status Best track data.

Storm track plot

Map of storm track

Intensity plots

No Intensity information for this storm


Radial wind information

No radial wind information for this storm


Position and Intensity Table

BASIN ISO_TIME_________ NATURE LAT LON
degrees north degrees east
SI 1976-03-03 00:00:00 TS -12.40 115.10
SI 01:00:00 TS -12.48 114.99
SI 03:00:00 TS -12.65 114.75
SI 04:00:00 TS -12.73 114.64
SI 06:00:00 TS -12.89 114.39
SI 07:00:00 TS -12.97 114.26
SI 09:00:00 TS -13.11 114.00
SI 10:00:00 TS -13.18 113.86
SI 12:00:00 TS -13.30 113.60
SI 13:00:00 TS -13.36 113.48
SI 15:00:00 TS -13.47 113.23
SI 16:00:00 TS -13.52 113.11
SI 18:00:00 TS -13.62 112.86
SI 19:00:00 TS -13.67 112.73
SI 21:00:00 TS -13.77 112.46
SI 22:00:00 TS -13.81 112.33
SI 1976-03-04 00:00:00 TS -13.90 112.10
SI 01:00:00 TS -13.94 112.01
SI 03:00:00 TS -14.01 111.87
SI 04:00:00 TS -14.04 111.81
SI 06:00:00 TS -14.09 111.70
SI 07:00:00 TS -14.12 111.65
SI 09:00:00 TS -14.15 111.55
SI 10:00:00 TS -14.17 111.50
SI 12:00:00 TS -14.20 111.40
SI 13:00:00 TS -14.22 111.34
SI 15:00:00 TS -14.26 111.21
SI 16:00:00 TS -14.27 111.14
SI 18:00:00 TS -14.31 111.00
SI 19:00:00 TS -14.33 110.92
SI 21:00:00 TS -14.36 110.76
SI 22:00:00 TS -14.38 110.68
SI 1976-03-05 00:00:00 TS -14.40 110.50
SI 01:00:00 TS -14.41 110.41
SI 03:00:00 TS -14.41 110.21

Source Information

Agency Information
USA bsh181976.txt
TOKYO
CMA
HKO
NEWDELHI
REUNION
BOM
NADI
WELLINGTON
DS824 s_hem.dat:1312:18S
TD9636 cons_worldwide_trop_cyclone_18710101-19891231-006:Line=10173
TD9635
NEUMANN
MLC

All available IBTrACS Data

SEASON BASIN SUBBASIN ISO_TIME_________ NATURE LAT LON DIST2LAND LANDFALL IFLAG USA AGENCY USA ATCF_ID USA LAT USA LON USA SSHS DS824 LAT DS824 LON DS824 STAGE TD9636 LAT TD9636 LON TD9636 STAGE STORM SPEED STORM DIR
Year degrees north degrees east km km degrees north degrees east 1 degrees north degrees east degrees north degrees east kts degrees
1976 SI WA 1976-03-03 00:00:00 TS -12.40 115.10 403 403 O________OO___ jtwc_sh SH181976 -12.40 115.10 -1 -12.40 115.10 TC -12.40 115.10 2 8 234
1976 SI WA 01:00:00 TS -12.48 114.99 414 414 P________PP___ SH181976 -12.49 114.99 -1 -12.49 114.99 TC -12.48 114.98 2 8 233
1976 SI WA 03:00:00 TS -12.65 114.75 437 436 P________PP___ SH181976 -12.66 114.76 -1 -12.66 114.76 TC -12.64 114.74 2 8 234
1976 SI WA 04:00:00 TS -12.73 114.64 436 436 P________PP___ SH181976 -12.74 114.65 -1 -12.74 114.65 TC -12.72 114.62 2 9 236
1976 SI WA 06:00:00 TS -12.89 114.39 459 459 O________OP___ jtwc_sh SH181976 -12.90 114.40 -1 -12.90 114.40 TC -12.87 114.37 2 9 237
1976 SI WA 07:00:00 TS -12.97 114.26 471 471 P________PP___ SH181976 -12.97 114.27 -1 -12.97 114.27 TC -12.95 114.25 2 9 240
1976 SI WA 09:00:00 TS -13.11 114.00 486 486 P________PP___ SH181976 -13.12 114.00 -1 -13.12 114.00 TC -13.09 113.99 2 9 242
1976 SI WA 10:00:00 TS -13.18 113.86 498 498 P________PP___ SH181976 -13.18 113.86 -1 -13.18 113.86 TC -13.17 113.86 2 9 244
1976 SI WA 12:00:00 TS -13.30 113.60 515 515 O________OO___ jtwc_sh SH181976 -13.30 113.60 -1 -13.30 113.60 TC -13.30 113.60 2 8 244
1976 SI WA 13:00:00 TS -13.36 113.48 529 529 P________PP___ SH181976 -13.36 113.48 -1 -13.36 113.48 TC -13.36 113.47 2 8 245
1976 SI WA 15:00:00 TS -13.47 113.23 548 548 P________PP___ SH181976 -13.46 113.25 -1 -13.46 113.25 TC -13.48 113.19 2 8 246
1976 SI WA 16:00:00 TS -13.52 113.11 551 551 P________PP___ SH181976 -13.51 113.14 -1 -13.51 113.14 TC -13.54 113.06 2 8 247
1976 SI WA 18:00:00 TS -13.62 112.86 568 568 O________OP___ jtwc_sh SH181976 -13.60 112.90 -1 -13.60 112.90 TC -13.65 112.79 2 8 248
1976 SI WA 19:00:00 TS -13.67 112.73 583 583 P________PP___ SH181976 -13.65 112.76 -1 -13.65 112.76 TC -13.69 112.66 2 8 249
1976 SI WA 21:00:00 TS -13.77 112.46 599 599 P________PP___ SH181976 -13.76 112.48 -1 -13.76 112.48 TC -13.78 112.42 2 8 249
1976 SI WA 22:00:00 TS -13.81 112.33 604 604 P________PP___ SH181976 -13.81 112.34 -1 -13.81 112.34 TC -13.83 112.30 2 7 249
1976 SI WA 1976-03-04 00:00:00 TS -13.90 112.10 617 616 O________OO___ jtwc_sh SH181976 -13.90 112.10 -1 -13.90 112.10 TC -13.90 112.10 2 7 248
1976 SI WA 01:00:00 TS -13.94 112.01 616 616 P________PP___ SH181976 -13.94 112.01 -1 -13.94 112.01 TC -13.94 112.02 2 5 244
1976 SI WA 03:00:00 TS -14.01 111.87 627 627 P________PP___ SH181976 -14.01 111.86 -1 -14.01 111.86 TC -14.00 111.88 2 4 243
1976 SI WA 04:00:00 TS -14.04 111.81 627 627 P________PP___ SH181976 -14.05 111.80 -1 -14.05 111.80 TC -14.03 111.81 2 4 242
1976 SI WA 06:00:00 TS -14.09 111.70 638 638 O________OP___ jtwc_sh SH181976 -14.10 111.70 -1 -14.10 111.70 TC -14.08 111.70 2 3 244
1976 SI WA 07:00:00 TS -14.12 111.65 638 638 P________PP___ SH181976 -14.12 111.65 -1 -14.12 111.65 TC -14.10 111.65 2 3 247
1976 SI WA 09:00:00 TS -14.15 111.55 649 649 P________PP___ SH181976 -14.16 111.55 -1 -14.16 111.55 TC -14.14 111.56 2 3 250
1976 SI WA 10:00:00 TS -14.17 111.50 649 649 P________PP___ SH181976 -14.17 111.50 -1 -14.17 111.50 TC -14.16 111.51 2 3 252
1976 SI WA 12:00:00 TS -14.20 111.40 650 650 O________OO___ jtwc_sh SH181976 -14.20 111.40 -1 -14.20 111.40 TC -14.20 111.40 2 3 253
1976 SI WA 13:00:00 TS -14.22 111.34 651 651 P________PP___ SH181976 -14.22 111.34 -1 -14.22 111.34 TC -14.22 111.34 2 4 253
1976 SI WA 15:00:00 TS -14.26 111.21 663 663 P________PP___ SH181976 -14.25 111.21 -1 -14.25 111.21 TC -14.25 111.21 2 4 254
1976 SI WA 16:00:00 TS -14.27 111.14 663 663 P________PP___ SH181976 -14.27 111.15 -1 -14.27 111.15 TC -14.27 111.14 2 4 256
1976 SI WA 18:00:00 TS -14.31 111.00 665 665 O________OP___ jtwc_sh SH181976 -14.30 111.00 -1 -14.30 111.00 TC -14.30 110.99 2 4 256
1976 SI WA 19:00:00 TS -14.33 110.92 666 666 P________PP___ SH181976 -14.32 110.92 -1 -14.32 110.92 TC -14.32 110.91 2 5 257
1976 SI WA 21:00:00 TS -14.36 110.76 679 679 P________PP___ SH181976 -14.35 110.76 -1 -14.35 110.76 TC -14.35 110.75 2 5 258
1976 SI WA 22:00:00 TS -14.38 110.68 680 680 P________PP___ SH181976 -14.37 110.67 -1 -14.37 110.67 TC -14.37 110.67 2 5 261
1976 SI WA 1976-03-05 00:00:00 TS -14.40 110.50 684 684 O________OO___ jtwc_sh SH181976 -14.40 110.50 -1 -14.40 110.50 TC -14.40 110.50 2 5 264
1976 SI WA 01:00:00 TS -14.41 110.41 686 686 ______________ SH181976 -1 TC 2 6 268
1976 SI WA 03:00:00 TS -14.41 110.21 691 ______________ SH181976 -1 TC 2 6 269